sensor_id;sensor_type;location;lat;lon;timestamp;P1;durP1;ratioP1;P2;durP2;ratioP2
46429;SDS011;32131;53.454;-6.180;2024-02-04T00:00:02;3.22;;;1.08;;
46429;SDS011;32131;53.454;-6.180;2024-02-04T00:02:34;4.50;;;0.73;;
46429;SDS011;32131;53.454;-6.180;2024-02-04T00:05:02;2.28;;;1.00;;
46429;SDS011;32131;53.454;-6.180;2024-02-04T00:07:31;4.68;;;1.02;;
46429;SDS011;32131;53.454;-6.180;2024-02-04T00:09:59;3.78;;;1.00;;
46429;SDS011;32131;53.454;-6.180;2024-02-04T00:12:28;6.65;;;0.70;;
46429;SDS011;32131;53.454;-6.180;2024-02-04T00:14:56;5.60;;;1.08;;
46429;SDS011;32131;53.454;-6.180;2024-02-04T00:17:24;2.83;;;0.82;;
46429;SDS011;32131;53.454;-6.180;2024-02-04T00:19:58;2.05;;;0.75;;
46429;SDS011;32131;53.454;-6.180;2024-02-04T00:22:26;2.75;;;0.35;;
46429;SDS011;32131;53.454;-6.180;2024-02-04T00:24:54;1.27;;;0.50;;
46429;SDS011;32131;53.454;-6.180;2024-02-04T00:27:28;1.85;;;0.50;;
46429;SDS011;32131;53.454;-6.180;2024-02-04T00:29:56;0.90;;;0.30;;
46429;SDS011;32131;53.454;-6.180;2024-02-04T00:32:24;2.58;;;0.20;;
46429;SDS011;32131;53.454;-6.180;2024-02-04T00:34:53;1.30;;;0.20;;
46429;SDS011;32131;53.454;-6.180;2024-02-04T00:37:23;2.63;;;0.43;;
46429;SDS011;32131;53.454;-6.180;2024-02-04T00:39:51;1.00;;;0.20;;
46429;SDS011;32131;53.454;-6.180;2024-02-04T00:42:20;1.17;;;0.30;;
46429;SDS011;32131;53.454;-6.180;2024-02-04T00:44:48;1.10;;;0.30;;
46429;SDS011;32131;53.454;-6.180;2024-02-04T00:47:16;0.80;;;0.30;;
46429;SDS011;32131;53.454;-6.180;2024-02-04T00:49:45;1.35;;;0.40;;
46429;SDS011;32131;53.454;-6.180;2024-02-04T00:52:13;2.90;;;0.75;;
46429;SDS011;32131;53.454;-6.180;2024-02-04T00:54:43;2.15;;;1.20;;
46429;SDS011;32131;53.454;-6.180;2024-02-04T00:57:11;2.10;;;1.30;;
46429;SDS011;32131;53.454;-6.180;2024-02-04T00:59:40;2.83;;;1.58;;
46429;SDS011;32131;53.454;-6.180;2024-02-04T01:02:08;3.55;;;2.00;;
46429;SDS011;32131;53.454;-6.180;2024-02-04T01:04:37;4.50;;;2.33;;
46429;SDS011;32131;53.454;-6.180;2024-02-04T01:07:05;3.30;;;2.25;;
46429;SDS011;32131;53.454;-6.180;2024-02-04T01:09:33;3.95;;;2.70;;
46429;SDS011;32131;53.454;-6.180;2024-02-04T01:12:03;4.53;;;2.78;;
46429;SDS011;32131;53.454;-6.180;2024-02-04T01:14:33;8.00;;;3.20;;
46429;SDS011;32131;53.454;-6.180;2024-02-04T01:17:01;5.70;;;3.67;;
46429;SDS011;32131;53.454;-6.180;2024-02-04T01:19:32;5.53;;;3.42;;
46429;SDS011;32131;53.454;-6.180;2024-02-04T01:22:00;4.68;;;3.40;;
46429;SDS011;32131;53.454;-6.180;2024-02-04T01:24:28;4.90;;;3.45;;
46429;SDS011;32131;53.454;-6.180;2024-02-04T01:27:00;7.10;;;3.40;;
46429;SDS011;32131;53.454;-6.180;2024-02-04T01:29:30;4.07;;;3.30;;
46429;SDS011;32131;53.454;-6.180;2024-02-04T01:31:58;4.25;;;2.72;;
46429;SDS011;32131;53.454;-6.180;2024-02-04T01:34:26;3.90;;;2.65;;
46429;SDS011;32131;53.454;-6.180;2024-02-04T01:36:56;6.35;;;3.63;;
46429;SDS011;32131;53.454;-6.180;2024-02-04T01:39:24;6.90;;;3.30;;
46429;SDS011;32131;53.454;-6.180;2024-02-04T01:41:53;4.72;;;3.05;;
46429;SDS011;32131;53.454;-6.180;2024-02-04T01:44:21;3.50;;;2.63;;
46429;SDS011;32131;53.454;-6.180;2024-02-04T01:46:51;3.80;;;2.13;;
46429;SDS011;32131;53.454;-6.180;2024-02-04T01:49:22;2.80;;;2.08;;
46429;SDS011;32131;53.454;-6.180;2024-02-04T01:51:50;3.30;;;2.50;;
46429;SDS011;32131;53.454;-6.180;2024-02-04T01:54:19;2.92;;;2.25;;
46429;SDS011;32131;53.454;-6.180;2024-02-04T01:56:48;3.45;;;2.38;;
46429;SDS011;32131;53.454;-6.180;2024-02-04T01:59:22;4.68;;;2.90;;
46429;SDS011;32131;53.454;-6.180;2024-02-04T02:01:56;4.22;;;2.40;;
46429;SDS011;32131;53.454;-6.180;2024-02-04T02:04:26;3.45;;;2.10;;
46429;SDS011;32131;53.454;-6.180;2024-02-04T02:06:55;3.38;;;2.22;;
46429;SDS011;32131;53.454;-6.180;2024-02-04T02:09:25;3.20;;;2.35;;
46429;SDS011;32131;53.454;-6.180;2024-02-04T02:11:57;4.20;;;2.50;;
46429;SDS011;32131;53.454;-6.180;2024-02-04T02:14:33;3.75;;;2.50;;
46429;SDS011;32131;53.454;-6.180;2024-02-04T02:17:07;4.03;;;2.35;;
46429;SDS011;32131;53.454;-6.180;2024-02-04T02:19:45;5.00;;;1.83;;
46429;SDS011;32131;53.454;-6.180;2024-02-04T02:22:23;3.58;;;1.98;;
46429;SDS011;32131;53.454;-6.180;2024-02-04T02:24:56;3.55;;;1.95;;
46429;SDS011;32131;53.454;-6.180;2024-02-04T02:27:25;2.95;;;1.75;;
46429;SDS011;32131;53.454;-6.180;2024-02-04T02:29:54;2.72;;;1.55;;
46429;SDS011;32131;53.454;-6.180;2024-02-04T02:32:22;3.08;;;1.50;;
46429;SDS011;32131;53.454;-6.180;2024-02-04T02:34:51;3.25;;;1.73;;
46429;SDS011;32131;53.454;-6.180;2024-02-04T02:37:22;4.03;;;1.25;;
46429;SDS011;32131;53.454;-6.180;2024-02-04T02:39:58;2.60;;;1.63;;
46429;SDS011;32131;53.454;-6.180;2024-02-04T02:42:31;2.22;;;1.40;;
46429;SDS011;32131;53.454;-6.180;2024-02-04T02:45:00;4.85;;;1.63;;
46429;SDS011;32131;53.454;-6.180;2024-02-04T02:47:29;2.22;;;1.30;;
46429;SDS011;32131;53.454;-6.180;2024-02-04T02:49:59;1.85;;;1.00;;
46429;SDS011;32131;53.454;-6.180;2024-02-04T02:52:28;2.13;;;1.35;;
46429;SDS011;32131;53.454;-6.180;2024-02-04T02:54:58;1.50;;;1.20;;
46429;SDS011;32131;53.454;-6.180;2024-02-04T02:57:28;1.50;;;0.95;;
46429;SDS011;32131;53.454;-6.180;2024-02-04T02:59:56;1.88;;;1.10;;
46429;SDS011;32131;53.454;-6.180;2024-02-04T03:02:24;3.58;;;1.23;;
46429;SDS011;32131;53.454;-6.180;2024-02-04T03:04:52;2.13;;;1.00;;
46429;SDS011;32131;53.454;-6.180;2024-02-04T03:07:21;1.30;;;0.82;;
46429;SDS011;32131;53.454;-6.180;2024-02-04T03:09:49;1.30;;;0.80;;
46429;SDS011;32131;53.454;-6.180;2024-02-04T03:12:20;0.88;;;0.50;;
46429;SDS011;32131;53.454;-6.180;2024-02-04T03:14:49;0.98;;;0.40;;
46429;SDS011;32131;53.454;-6.180;2024-02-04T03:17:19;1.48;;;0.65;;
46429;SDS011;32131;53.454;-6.180;2024-02-04T03:19:48;0.98;;;0.60;;
46429;SDS011;32131;53.454;-6.180;2024-02-04T03:22:18;2.35;;;0.80;;
46429;SDS011;32131;53.454;-6.180;2024-02-04T03:24:48;0.80;;;0.40;;
46429;SDS011;32131;53.454;-6.180;2024-02-04T03:27:22;2.10;;;0.70;;
46429;SDS011;32131;53.454;-6.180;2024-02-04T03:29:50;1.27;;;0.60;;
46429;SDS011;32131;53.454;-6.180;2024-02-04T03:32:19;2.13;;;0.85;;
46429;SDS011;32131;53.454;-6.180;2024-02-04T03:34:49;1.10;;;0.60;;
46429;SDS011;32131;53.454;-6.180;2024-02-04T03:37:18;2.05;;;0.82;;
46429;SDS011;32131;53.454;-6.180;2024-02-04T03:39:46;1.45;;;0.52;;
46429;SDS011;32131;53.454;-6.180;2024-02-04T03:42:22;1.40;;;0.70;;
46429;SDS011;32131;53.454;-6.180;2024-02-04T03:44:51;0.38;;;0.30;;
46429;SDS011;32131;53.454;-6.180;2024-02-04T03:47:19;2.33;;;0.47;;
46429;SDS011;32131;53.454;-6.180;2024-02-04T03:49:47;1.00;;;0.50;;
46429;SDS011;32131;53.454;-6.180;2024-02-04T03:52:15;1.05;;;0.40;;
46429;SDS011;32131;53.454;-6.180;2024-02-04T03:54:43;1.20;;;0.50;;
46429;SDS011;32131;53.454;-6.180;2024-02-04T03:57:12;1.00;;;0.57;;
46429;SDS011;32131;53.454;-6.180;2024-02-04T03:59:43;0.90;;;0.60;;
46429;SDS011;32131;53.454;-6.180;2024-02-04T04:02:13;0.73;;;0.40;;
46429;SDS011;32131;53.454;-6.180;2024-02-04T04:04:41;0.90;;;0.43;;
46429;SDS011;32131;53.454;-6.180;2024-02-04T04:07:10;1.25;;;0.55;;
46429;SDS011;32131;53.454;-6.180;2024-02-04T04:09:39;0.32;;;0.20;;
46429;SDS011;32131;53.454;-6.180;2024-02-04T04:12:07;1.13;;;0.25;;
46429;SDS011;32131;53.454;-6.180;2024-02-04T04:14:36;0.60;;;0.30;;
46429;SDS011;32131;53.454;-6.180;2024-02-04T04:17:05;0.22;;;0.20;;
46429;SDS011;32131;53.454;-6.180;2024-02-04T04:19:34;0.30;;;0.20;;
46429;SDS011;32131;53.454;-6.180;2024-02-04T04:22:03;0.90;;;0.10;;
46429;SDS011;32131;53.454;-6.180;2024-02-04T04:24:32;0.10;;;0.08;;
46429;SDS011;32131;53.454;-6.180;2024-02-04T04:27:00;0.40;;;0.10;;
46429;SDS011;32131;53.454;-6.180;2024-02-04T04:29:31;0.75;;;0.22;;
46429;SDS011;32131;53.454;-6.180;2024-02-04T04:31:59;0.90;;;0.10;;
46429;SDS011;32131;53.454;-6.180;2024-02-04T04:34:29;0.90;;;0.22;;
46429;SDS011;32131;53.454;-6.180;2024-02-04T04:36:58;0.52;;;0.20;;
46429;SDS011;32131;53.454;-6.180;2024-02-04T04:39:26;0.22;;;0.10;;
46429;SDS011;32131;53.454;-6.180;2024-02-04T04:41:55;0.22;;;0.10;;
46429;SDS011;32131;53.454;-6.180;2024-02-04T04:44:23;0.30;;;0.10;;
46429;SDS011;32131;53.454;-6.180;2024-02-04T04:46:51;0.10;;;0.10;;
46429;SDS011;32131;53.454;-6.180;2024-02-04T04:49:19;0.00;;;0.00;;
46429;SDS011;32131;53.454;-6.180;2024-02-04T04:51:49;0.47;;;0.20;;
46429;SDS011;32131;53.454;-6.180;2024-02-04T04:54:17;0.75;;;0.30;;
46429;SDS011;32131;53.454;-6.180;2024-02-04T04:56:47;0.00;;;0.00;;
46429;SDS011;32131;53.454;-6.180;2024-02-04T04:59:17;0.10;;;0.00;;
46429;SDS011;32131;53.454;-6.180;2024-02-04T05:01:46;0.30;;;0.10;;
46429;SDS011;32131;53.454;-6.180;2024-02-04T05:04:15;0.30;;;0.10;;
46429;SDS011;32131;53.454;-6.180;2024-02-04T05:06:45;0.15;;;0.10;;
46429;SDS011;32131;53.454;-6.180;2024-02-04T05:09:15;1.58;;;0.20;;
46429;SDS011;32131;53.454;-6.180;2024-02-04T05:11:43;0.47;;;0.20;;
46429;SDS011;32131;53.454;-6.180;2024-02-04T05:14:11;0.10;;;0.10;;
46429;SDS011;32131;53.454;-6.180;2024-02-04T05:16:40;0.10;;;0.00;;
46429;SDS011;32131;53.454;-6.180;2024-02-04T05:19:10;0.50;;;0.10;;
46429;SDS011;32131;53.454;-6.180;2024-02-04T05:21:39;0.00;;;0.00;;
46429;SDS011;32131;53.454;-6.180;2024-02-04T05:24:08;0.00;;;0.00;;
46429;SDS011;32131;53.454;-6.180;2024-02-04T05:26:37;0.57;;;0.10;;
46429;SDS011;32131;53.454;-6.180;2024-02-04T05:29:06;0.20;;;0.00;;
46429;SDS011;32131;53.454;-6.180;2024-02-04T05:31:39;0.20;;;0.10;;
46429;SDS011;32131;53.454;-6.180;2024-02-04T05:34:08;0.40;;;0.10;;
46429;SDS011;32131;53.454;-6.180;2024-02-04T05:36:37;0.30;;;0.08;;
46429;SDS011;32131;53.454;-6.180;2024-02-04T05:39:08;0.10;;;0.10;;
46429;SDS011;32131;53.454;-6.180;2024-02-04T05:41:39;0.40;;;0.20;;
46429;SDS011;32131;53.454;-6.180;2024-02-04T05:44:09;0.40;;;0.10;;
46429;SDS011;32131;53.454;-6.180;2024-02-04T05:46:37;1.85;;;0.20;;
46429;SDS011;32131;53.454;-6.180;2024-02-04T05:49:07;0.10;;;0.00;;
46429;SDS011;32131;53.454;-6.180;2024-02-04T05:51:40;0.45;;;0.10;;
46429;SDS011;32131;53.454;-6.180;2024-02-04T05:54:09;3.17;;;0.22;;
46429;SDS011;32131;53.454;-6.180;2024-02-04T05:56:38;0.10;;;0.00;;
46429;SDS011;32131;53.454;-6.180;2024-02-04T06:01:35;0.20;;;0.10;;
46429;SDS011;32131;53.454;-6.180;2024-02-04T06:04:04;0.05;;;0.05;;
46429;SDS011;32131;53.454;-6.180;2024-02-04T06:06:33;1.20;;;0.20;;
46429;SDS011;32131;53.454;-6.180;2024-02-04T06:09:01;1.20;;;0.15;;
46429;SDS011;32131;53.454;-6.180;2024-02-04T06:11:30;0.05;;;0.05;;
46429;SDS011;32131;53.454;-6.180;2024-02-04T06:14:00;0.22;;;0.20;;
46429;SDS011;32131;53.454;-6.180;2024-02-04T06:16:28;0.63;;;0.10;;
46429;SDS011;32131;53.454;-6.180;2024-02-04T06:18:57;0.10;;;0.10;;
46429;SDS011;32131;53.454;-6.180;2024-02-04T06:21:26;0.30;;;0.20;;
46429;SDS011;32131;53.454;-6.180;2024-02-04T06:23:54;0.22;;;0.10;;
46429;SDS011;32131;53.454;-6.180;2024-02-04T06:26:23;0.95;;;0.20;;
46429;SDS011;32131;53.454;-6.180;2024-02-04T06:28:52;0.00;;;0.00;;
46429;SDS011;32131;53.454;-6.180;2024-02-04T06:31:24;0.35;;;0.10;;
46429;SDS011;32131;53.454;-6.180;2024-02-04T06:33:52;0.10;;;0.00;;
46429;SDS011;32131;53.454;-6.180;2024-02-04T06:36:21;0.57;;;0.10;;
46429;SDS011;32131;53.454;-6.180;2024-02-04T06:38:49;0.28;;;0.10;;
46429;SDS011;32131;53.454;-6.180;2024-02-04T06:41:17;0.85;;;0.20;;
46429;SDS011;32131;53.454;-6.180;2024-02-04T06:43:46;0.88;;;0.15;;
46429;SDS011;32131;53.454;-6.180;2024-02-04T06:46:14;0.20;;;0.10;;
46429;SDS011;32131;53.454;-6.180;2024-02-04T06:48:53;0.30;;;0.13;;
46429;SDS011;32131;53.454;-6.180;2024-02-04T06:51:22;1.35;;;0.20;;
46429;SDS011;32131;53.454;-6.180;2024-02-04T06:53:50;0.55;;;0.20;;
46429;SDS011;32131;53.454;-6.180;2024-02-04T06:56:18;0.03;;;0.03;;
46429;SDS011;32131;53.454;-6.180;2024-02-04T06:58:47;0.40;;;0.13;;
46429;SDS011;32131;53.454;-6.180;2024-02-04T07:01:15;0.98;;;0.30;;
46429;SDS011;32131;53.454;-6.180;2024-02-04T07:03:45;1.52;;;0.30;;
46429;SDS011;32131;53.454;-6.180;2024-02-04T07:06:13;3.35;;;0.20;;
46429;SDS011;32131;53.454;-6.180;2024-02-04T07:08:42;0.38;;;0.20;;
46429;SDS011;32131;53.454;-6.180;2024-02-04T07:11:10;1.02;;;0.20;;
46429;SDS011;32131;53.454;-6.180;2024-02-04T07:13:38;1.20;;;0.20;;
46429;SDS011;32131;53.454;-6.180;2024-02-04T07:16:06;1.33;;;0.38;;
46429;SDS011;32131;53.454;-6.180;2024-02-04T07:18:35;0.65;;;0.35;;
46429;SDS011;32131;53.454;-6.180;2024-02-04T07:21:05;0.75;;;0.50;;
46429;SDS011;32131;53.454;-6.180;2024-02-04T07:23:33;4.60;;;0.63;;
46429;SDS011;32131;53.454;-6.180;2024-02-04T07:26:01;2.50;;;0.35;;
46429;SDS011;32131;53.454;-6.180;2024-02-04T07:28:29;1.95;;;0.43;;
46429;SDS011;32131;53.454;-6.180;2024-02-04T07:30:58;6.25;;;0.50;;
46429;SDS011;32131;53.454;-6.180;2024-02-04T07:33:26;2.30;;;0.70;;
46429;SDS011;32131;53.454;-6.180;2024-02-04T07:35:58;2.45;;;0.82;;
46429;SDS011;32131;53.454;-6.180;2024-02-04T07:38:29;4.68;;;0.90;;
46429;SDS011;32131;53.454;-6.180;2024-02-04T07:40:57;1.75;;;0.55;;
46429;SDS011;32131;53.454;-6.180;2024-02-04T07:43:25;3.40;;;0.50;;
46429;SDS011;32131;53.454;-6.180;2024-02-04T07:45:54;2.25;;;0.60;;
46429;SDS011;32131;53.454;-6.180;2024-02-04T07:48:22;5.70;;;0.93;;
46429;SDS011;32131;53.454;-6.180;2024-02-04T07:50:51;3.15;;;0.70;;
46429;SDS011;32131;53.454;-6.180;2024-02-04T07:53:19;3.42;;;0.70;;
46429;SDS011;32131;53.454;-6.180;2024-02-04T07:55:50;5.80;;;1.17;;
46429;SDS011;32131;53.454;-6.180;2024-02-04T07:58:18;1.77;;;0.70;;
46429;SDS011;32131;53.454;-6.180;2024-02-04T08:00:46;2.72;;;0.77;;
46429;SDS011;32131;53.454;-6.180;2024-02-04T08:03:15;2.50;;;0.77;;
46429;SDS011;32131;53.454;-6.180;2024-02-04T08:05:43;0.68;;;0.38;;
46429;SDS011;32131;53.454;-6.180;2024-02-04T08:08:11;3.92;;;0.30;;
46429;SDS011;32131;53.454;-6.180;2024-02-04T08:10:40;2.13;;;0.63;;
46429;SDS011;32131;53.454;-6.180;2024-02-04T08:13:10;1.48;;;0.50;;
46429;SDS011;32131;53.454;-6.180;2024-02-04T08:15:38;1.65;;;0.80;;
46429;SDS011;32131;53.454;-6.180;2024-02-04T08:18:07;3.65;;;0.70;;
46429;SDS011;32131;53.454;-6.180;2024-02-04T08:20:35;5.25;;;0.40;;
46429;SDS011;32131;53.454;-6.180;2024-02-04T08:23:03;1.52;;;0.45;;
46429;SDS011;32131;53.454;-6.180;2024-02-04T08:25:31;4.28;;;0.80;;
46429;SDS011;32131;53.454;-6.180;2024-02-04T08:28:00;3.70;;;0.68;;
46429;SDS011;32131;53.454;-6.180;2024-02-04T08:30:31;3.58;;;0.77;;
46429;SDS011;32131;53.454;-6.180;2024-02-04T08:32:59;2.30;;;0.68;;
46429;SDS011;32131;53.454;-6.180;2024-02-04T08:35:28;4.68;;;0.50;;
46429;SDS011;32131;53.454;-6.180;2024-02-04T08:37:56;3.22;;;0.60;;
46429;SDS011;32131;53.454;-6.180;2024-02-04T08:40:25;2.90;;;0.50;;
46429;SDS011;32131;53.454;-6.180;2024-02-04T08:42:53;1.38;;;0.50;;
46429;SDS011;32131;53.454;-6.180;2024-02-04T08:45:22;3.20;;;1.10;;
46429;SDS011;32131;53.454;-6.180;2024-02-04T08:47:51;1.33;;;0.50;;
46429;SDS011;32131;53.454;-6.180;2024-02-04T08:50:19;2.13;;;0.40;;
46429;SDS011;32131;53.454;-6.180;2024-02-04T08:52:50;0.35;;;0.13;;
46429;SDS011;32131;53.454;-6.180;2024-02-04T08:55:19;2.05;;;0.30;;
46429;SDS011;32131;53.454;-6.180;2024-02-04T08:57:47;1.30;;;0.28;;
46429;SDS011;32131;53.454;-6.180;2024-02-04T09:00:16;2.55;;;0.40;;
46429;SDS011;32131;53.454;-6.180;2024-02-04T09:02:45;3.92;;;0.45;;
46429;SDS011;32131;53.454;-6.180;2024-02-04T09:05:15;1.73;;;0.30;;
46429;SDS011;32131;53.454;-6.180;2024-02-04T09:07:44;1.45;;;0.20;;
46429;SDS011;32131;53.454;-6.180;2024-02-04T09:10:13;1.45;;;0.43;;
46429;SDS011;32131;53.454;-6.180;2024-02-04T09:12:42;0.20;;;0.10;;
46429;SDS011;32131;53.454;-6.180;2024-02-04T09:15:11;1.00;;;0.20;;
46429;SDS011;32131;53.454;-6.180;2024-02-04T09:17:39;0.93;;;0.20;;
46429;SDS011;32131;53.454;-6.180;2024-02-04T09:20:08;2.00;;;0.20;;
46429;SDS011;32131;53.454;-6.180;2024-02-04T09:22:39;1.27;;;0.32;;
46429;SDS011;32131;53.454;-6.180;2024-02-04T09:25:07;1.00;;;0.20;;
46429;SDS011;32131;53.454;-6.180;2024-02-04T09:27:36;1.10;;;0.20;;
46429;SDS011;32131;53.454;-6.180;2024-02-04T09:30:05;0.50;;;0.10;;
46429;SDS011;32131;53.454;-6.180;2024-02-04T09:32:34;0.50;;;0.20;;
46429;SDS011;32131;53.454;-6.180;2024-02-04T09:35:03;0.60;;;0.28;;
46429;SDS011;32131;53.454;-6.180;2024-02-04T09:37:32;3.13;;;0.40;;
46429;SDS011;32131;53.454;-6.180;2024-02-04T09:40:02;0.65;;;0.20;;
46429;SDS011;32131;53.454;-6.180;2024-02-04T09:42:32;1.58;;;0.43;;
46429;SDS011;32131;53.454;-6.180;2024-02-04T09:45:00;1.05;;;0.30;;
46429;SDS011;32131;53.454;-6.180;2024-02-04T09:47:29;1.02;;;0.20;;
46429;SDS011;32131;53.454;-6.180;2024-02-04T09:49:59;0.57;;;0.32;;
46429;SDS011;32131;53.454;-6.180;2024-02-04T09:52:29;1.40;;;0.40;;
46429;SDS011;32131;53.454;-6.180;2024-02-04T09:55:00;2.45;;;0.43;;
46429;SDS011;32131;53.454;-6.180;2024-02-04T09:57:33;1.77;;;0.35;;
46429;SDS011;32131;53.454;-6.180;2024-02-04T10:00:02;2.08;;;0.50;;
46429;SDS011;32131;53.454;-6.180;2024-02-04T10:02:32;7.20;;;0.70;;
46429;SDS011;32131;53.454;-6.180;2024-02-04T10:05:01;1.90;;;0.20;;
46429;SDS011;32131;53.454;-6.180;2024-02-04T10:07:30;4.43;;;0.40;;
46429;SDS011;32131;53.454;-6.180;2024-02-04T10:09:59;2.95;;;0.50;;
46429;SDS011;32131;53.454;-6.180;2024-02-04T10:12:29;4.80;;;0.55;;
46429;SDS011;32131;53.454;-6.180;2024-02-04T10:17:26;2.40;;;0.68;;
46429;SDS011;32131;53.454;-6.180;2024-02-04T10:19:56;2.35;;;0.60;;
46429;SDS011;32131;53.454;-6.180;2024-02-04T10:22:25;2.28;;;0.70;;
46429;SDS011;32131;53.454;-6.180;2024-02-04T10:25:05;2.78;;;0.75;;
46429;SDS011;32131;53.454;-6.180;2024-02-04T10:27:36;7.40;;;0.73;;
46429;SDS011;32131;53.454;-6.180;2024-02-04T10:30:06;3.33;;;0.88;;
46429;SDS011;32131;53.454;-6.180;2024-02-04T10:32:35;1.65;;;0.70;;
46429;SDS011;32131;53.454;-6.180;2024-02-04T10:35:04;1.40;;;0.57;;
46429;SDS011;32131;53.454;-6.180;2024-02-04T10:37:34;4.95;;;0.80;;
46429;SDS011;32131;53.454;-6.180;2024-02-04T10:40:03;3.42;;;0.85;;
46429;SDS011;32131;53.454;-6.180;2024-02-04T10:42:35;3.28;;;0.68;;
46429;SDS011;32131;53.454;-6.180;2024-02-04T10:45:07;2.13;;;0.55;;
46429;SDS011;32131;53.454;-6.180;2024-02-04T10:47:39;4.90;;;0.60;;
46429;SDS011;32131;53.454;-6.180;2024-02-04T10:50:08;4.63;;;0.60;;
46429;SDS011;32131;53.454;-6.180;2024-02-04T10:52:39;4.03;;;0.95;;
46429;SDS011;32131;53.454;-6.180;2024-02-04T10:55:08;1.30;;;0.60;;
46429;SDS011;32131;53.454;-6.180;2024-02-04T10:57:39;2.88;;;1.02;;
46429;SDS011;32131;53.454;-6.180;2024-02-04T11:00:08;1.55;;;0.80;;
46429;SDS011;32131;53.454;-6.180;2024-02-04T11:02:39;6.03;;;1.27;;
46429;SDS011;32131;53.454;-6.180;2024-02-04T11:05:12;5.35;;;0.73;;
46429;SDS011;32131;53.454;-6.180;2024-02-04T11:07:43;4.45;;;1.13;;
46429;SDS011;32131;53.454;-6.180;2024-02-04T11:10:11;3.63;;;1.08;;
46429;SDS011;32131;53.454;-6.180;2024-02-04T11:12:42;2.80;;;0.90;;
46429;SDS011;32131;53.454;-6.180;2024-02-04T11:15:13;2.88;;;1.20;;
46429;SDS011;32131;53.454;-6.180;2024-02-04T11:20:23;1.88;;;0.90;;
46429;SDS011;32131;53.454;-6.180;2024-02-04T11:23:05;4.63;;;1.13;;
46429;SDS011;32131;53.454;-6.180;2024-02-04T11:25:47;7.35;;;1.35;;
46429;SDS011;32131;53.454;-6.180;2024-02-04T11:28:18;1.92;;;0.85;;
46429;SDS011;32131;53.454;-6.180;2024-02-04T11:30:49;6.22;;;1.10;;
46429;SDS011;32131;53.454;-6.180;2024-02-04T11:33:18;8.10;;;1.83;;
46429;SDS011;32131;53.454;-6.180;2024-02-04T11:35:57;10.02;;;1.45;;
46429;SDS011;32131;53.454;-6.180;2024-02-04T11:38:30;7.60;;;1.70;;
46429;SDS011;32131;53.454;-6.180;2024-02-04T11:40:59;12.27;;;1.30;;
46429;SDS011;32131;53.454;-6.180;2024-02-04T11:43:33;10.52;;;1.75;;
46429;SDS011;32131;53.454;-6.180;2024-02-04T11:46:02;9.95;;;1.67;;
46429;SDS011;32131;53.454;-6.180;2024-02-04T11:48:33;5.07;;;1.00;;
46429;SDS011;32131;53.454;-6.180;2024-02-04T11:51:04;10.73;;;2.80;;
46429;SDS011;32131;53.454;-6.180;2024-02-04T11:53:35;7.40;;;2.20;;
46429;SDS011;32131;53.454;-6.180;2024-02-04T11:56:05;11.75;;;2.15;;
46429;SDS011;32131;53.454;-6.180;2024-02-04T11:58:38;8.63;;;1.75;;
46429;SDS011;32131;53.454;-6.180;2024-02-04T12:01:09;13.25;;;1.67;;
46429;SDS011;32131;53.454;-6.180;2024-02-04T12:03:38;10.07;;;2.08;;
46429;SDS011;32131;53.454;-6.180;2024-02-04T12:06:08;9.55;;;1.92;;
46429;SDS011;32131;53.454;-6.180;2024-02-04T12:08:42;11.88;;;2.83;;
46429;SDS011;32131;53.454;-6.180;2024-02-04T12:11:15;14.07;;;3.50;;
46429;SDS011;32131;53.454;-6.180;2024-02-04T12:13:47;8.85;;;2.70;;
46429;SDS011;32131;53.454;-6.180;2024-02-04T12:16:18;18.77;;;2.88;;
46429;SDS011;32131;53.454;-6.180;2024-02-04T12:18:48;17.27;;;2.92;;
46429;SDS011;32131;53.454;-6.180;2024-02-04T12:21:17;16.33;;;3.05;;
46429;SDS011;32131;53.454;-6.180;2024-02-04T12:23:46;15.73;;;2.50;;
46429;SDS011;32131;53.454;-6.180;2024-02-04T12:26:15;11.88;;;2.92;;
46429;SDS011;32131;53.454;-6.180;2024-02-04T12:28:44;18.52;;;2.83;;
46429;SDS011;32131;53.454;-6.180;2024-02-04T12:31:24;16.67;;;3.60;;
46429;SDS011;32131;53.454;-6.180;2024-02-04T12:33:56;16.25;;;3.65;;
46429;SDS011;32131;53.454;-6.180;2024-02-04T12:36:29;23.73;;;4.40;;
46429;SDS011;32131;53.454;-6.180;2024-02-04T12:38:58;23.27;;;4.43;;
46429;SDS011;32131;53.454;-6.180;2024-02-04T12:41:28;13.80;;;2.80;;
46429;SDS011;32131;53.454;-6.180;2024-02-04T12:43:57;13.07;;;3.45;;
46429;SDS011;32131;53.454;-6.180;2024-02-04T12:46:28;16.42;;;3.35;;
46429;SDS011;32131;53.454;-6.180;2024-02-04T12:48:58;18.65;;;3.38;;
46429;SDS011;32131;53.454;-6.180;2024-02-04T12:51:32;17.20;;;3.63;;
46429;SDS011;32131;53.454;-6.180;2024-02-04T12:54:02;26.98;;;3.80;;
46429;SDS011;32131;53.454;-6.180;2024-02-04T12:56:42;17.17;;;3.83;;
46429;SDS011;32131;53.454;-6.180;2024-02-04T12:59:12;17.80;;;3.22;;
46429;SDS011;32131;53.454;-6.180;2024-02-04T13:01:53;11.98;;;3.75;;
46429;SDS011;32131;53.454;-6.180;2024-02-04T13:04:22;18.27;;;3.97;;
46429;SDS011;32131;53.454;-6.180;2024-02-04T13:06:51;16.15;;;3.38;;
46429;SDS011;32131;53.454;-6.180;2024-02-04T13:09:20;17.42;;;2.67;;
46429;SDS011;32131;53.454;-6.180;2024-02-04T13:11:49;20.85;;;3.47;;
46429;SDS011;32131;53.454;-6.180;2024-02-04T13:14:18;23.13;;;3.97;;
46429;SDS011;32131;53.454;-6.180;2024-02-04T13:16:48;27.48;;;4.32;;
46429;SDS011;32131;53.454;-6.180;2024-02-04T13:19:19;29.15;;;4.07;;
46429;SDS011;32131;53.454;-6.180;2024-02-04T13:24:16;18.15;;;3.88;;
46429;SDS011;32131;53.454;-6.180;2024-02-04T13:26:55;17.25;;;3.53;;
46429;SDS011;32131;53.454;-6.180;2024-02-04T13:29:53;19.70;;;3.60;;
46429;SDS011;32131;53.454;-6.180;2024-02-04T13:32:58;16.33;;;3.97;;
46429;SDS011;32131;53.454;-6.180;2024-02-04T13:35:45;24.30;;;3.45;;
46429;SDS011;32131;53.454;-6.180;2024-02-04T13:38:23;21.15;;;4.03;;
46429;SDS011;32131;53.454;-6.180;2024-02-04T13:41:17;16.13;;;3.20;;
46429;SDS011;32131;53.454;-6.180;2024-02-04T13:43:57;23.92;;;3.05;;
46429;SDS011;32131;53.454;-6.180;2024-02-04T13:46:41;17.10;;;3.70;;
46429;SDS011;32131;53.454;-6.180;2024-02-04T13:52:40;20.48;;;2.95;;
46429;SDS011;32131;53.454;-6.180;2024-02-04T13:55:40;17.65;;;3.88;;
46429;SDS011;32131;53.454;-6.180;2024-02-04T13:58:22;24.25;;;3.80;;
46429;SDS011;32131;53.454;-6.180;2024-02-04T14:01:08;17.70;;;3.75;;
46429;SDS011;32131;53.454;-6.180;2024-02-04T14:03:48;25.02;;;4.18;;
46429;SDS011;32131;53.454;-6.180;2024-02-04T14:06:24;10.70;;;3.25;;
46429;SDS011;32131;53.454;-6.180;2024-02-04T14:09:06;18.33;;;3.50;;
46429;SDS011;32131;53.454;-6.180;2024-02-04T14:11:48;24.50;;;5.40;;
46429;SDS011;32131;53.454;-6.180;2024-02-04T14:14:34;31.50;;;4.47;;
46429;SDS011;32131;53.454;-6.180;2024-02-04T14:17:12;19.92;;;4.22;;
46429;SDS011;32131;53.454;-6.180;2024-02-04T14:19:48;19.88;;;3.15;;
46429;SDS011;32131;53.454;-6.180;2024-02-04T14:22:40;24.05;;;3.78;;
46429;SDS011;32131;53.454;-6.180;2024-02-04T14:25:21;15.43;;;4.40;;
46429;SDS011;32131;53.454;-6.180;2024-02-04T14:28:06;18.95;;;4.10;;
46429;SDS011;32131;53.454;-6.180;2024-02-04T14:30:54;22.73;;;3.63;;
46429;SDS011;32131;53.454;-6.180;2024-02-04T14:33:35;17.15;;;4.57;;
46429;SDS011;32131;53.454;-6.180;2024-02-04T14:36:33;14.75;;;3.85;;
46429;SDS011;32131;53.454;-6.180;2024-02-04T14:39:20;14.95;;;3.67;;
46429;SDS011;32131;53.454;-6.180;2024-02-04T14:42:18;24.65;;;3.95;;
46429;SDS011;32131;53.454;-6.180;2024-02-04T14:45:17;22.92;;;4.82;;
46429;SDS011;32131;53.454;-6.180;2024-02-04T14:48:06;20.27;;;2.95;;
46429;SDS011;32131;53.454;-6.180;2024-02-04T14:50:59;31.48;;;4.30;;
46429;SDS011;32131;53.454;-6.180;2024-02-04T14:54:01;28.10;;;4.47;;
46429;SDS011;32131;53.454;-6.180;2024-02-04T14:56:30;25.70;;;4.65;;
46429;SDS011;32131;53.454;-6.180;2024-02-04T14:59:02;19.67;;;4.88;;
46429;SDS011;32131;53.454;-6.180;2024-02-04T15:01:48;24.17;;;4.57;;
46429;SDS011;32131;53.454;-6.180;2024-02-04T15:04:19;24.45;;;4.57;;
46429;SDS011;32131;53.454;-6.180;2024-02-04T15:06:54;39.58;;;6.22;;